Time;durP1;ratioP1;P1;durP2;ratioP2;P2;SDS_P1;SDS_P2;PMS_P1;PMS_P2;Temp;Humidity;BMP_temperature;BMP_pressure;BME280_temperature;BME280_humidity;BME280_pressure;Samples;Min_cycle;Max_cycle;Signal;HPM_P1;HPM_P2
2023/07/11 00:01:37;;;;;;;;;;;17.20;99.90;;;;;;5071547;28;20385;-48
2023/07/11 00:04:03;;;;;;;;;;;17.20;99.90;;;;;;5069714;28;19921;-49
2023/07/11 00:06:28;;;;;;;;;;;17.20;99.90;;;;;;5071078;28;19923;-47
2023/07/11 00:08:54;;;;;;;;;;;17.30;99.90;;;;;;5071386;28;19995;-47
2023/07/11 00:11:20;;;;;;;;;;;17.30;99.90;;;;;;5071686;28;20376;-48
2023/07/11 00:13:46;;;;;;;;;;;17.20;99.90;;;;;;5070673;28;20050;-50
2023/07/11 00:16:12;;;;;;;;;;;17.20;99.90;;;;;;5070626;28;19932;-50
2023/07/11 00:18:38;;;;;;;;;;;17.20;99.90;;;;;;5070255;28;19918;-49
2023/07/11 00:21:04;;;;;;;;;;;17.20;99.90;;;;;;5071256;28;20003;-48
2023/07/11 00:23:29;;;;;;;;;;;17.20;99.90;;;;;;5070981;28;20347;-48
2023/07/11 00:25:55;;;;;;;;;;;17.20;99.90;;;;;;5070482;28;19916;-50
2023/07/11 00:28:21;;;;;;;;;;;17.20;99.90;;;;;;5069953;28;19978;-50
2023/07/11 00:30:47;;;;;;;;;;;17.20;99.90;;;;;;5070817;28;19927;-48
2023/07/11 00:33:12;;;;;;;;;;;17.20;99.90;;;;;;5070947;28;19927;-48
2023/07/11 00:35:38;;;;;;;;;;;17.20;99.90;;;;;;5069958;28;19920;-48
2023/07/11 00:38:04;;;;;;;;;;;17.30;99.90;;;;;;5068995;28;20411;-48
2023/07/11 00:40:29;;;;;;;;;;;17.20;99.90;;;;;;5070334;28;19917;-49
2023/07/11 00:42:58;;;;;;;;;;;17.20;99.90;;;;;;5070657;28;19931;-49
2023/07/11 00:45:42;;;;;;;;;;;17.20;99.90;;;;;;5070221;28;19916;-48
2023/07/11 00:48:08;;;;;;;;;;;17.20;99.90;;;;;;5070631;28;19916;-49
2023/07/11 00:50:33;;;;;;;;;;;17.20;99.90;;;;;;5070312;28;20306;-50
2023/07/11 00:52:59;;;;;;;;;;;17.20;99.90;;;;;;5070211;28;19920;-47
2023/07/11 00:55:24;;;;;;;;;;;17.20;99.90;;;;;;5069699;28;19946;-48
2023/07/11 00:57:50;;;;;;;;;;;17.20;99.90;;;;;;5070204;28;19924;-48
2023/07/11 01:00:16;;;;;;;;;;;17.20;99.90;;;;;;5070305;28;20359;-48
2023/07/11 01:02:42;;;;;;;;;;;17.30;99.90;;;;;;5070208;28;19967;-49
2023/07/11 01:05:07;;;;;;;;;;;17.20;99.90;;;;;;5068537;28;19967;-48
2023/07/11 01:07:35;;;;;;;;;;;17.20;99.90;;;;;;5070008;28;20321;-48
2023/07/11 01:10:00;;;;;;;;;;;17.20;99.90;;;;;;5069835;28;20365;-48
2023/07/11 01:12:26;;;;;;;;;;;17.20;99.90;;;;;;5067420;28;19925;-49
2023/07/11 01:14:51;;;;;;;;;;;17.20;99.90;;;;;;5069313;28;19916;-48
2023/07/11 01:17:30;;;;;;;;;;;17.20;99.90;;;;;;5068652;28;19920;-48
2023/07/11 01:19:57;;;;;;;;;;;17.20;99.90;;;;;;5066996;28;19916;-48
2023/07/11 01:22:23;;;;;;;;;;;17.20;99.90;;;;;;5069556;28;20386;-48
2023/07/11 01:24:50;;;;;;;;;;;17.20;99.90;;;;;;5068782;28;19955;-49
2023/07/11 01:27:16;;;;;;;;;;;17.20;99.90;;;;;;5069557;28;19924;-49
2023/07/11 01:29:42;;;;;;;;;;;17.20;99.90;;;;;;5069848;28;19924;-49
2023/07/11 01:32:09;;;;;;;;;;;17.20;99.90;;;;;;5069410;28;19966;-48
2023/07/11 01:34:34;;;;;;;;;;;17.20;99.90;;;;;;5069366;28;20294;-49
2023/07/11 01:36:59;;;;;;;;;;;17.20;99.90;;;;;;5069054;28;19924;-47
2023/07/11 01:39:25;;;;;;;;;;;17.10;99.90;;;;;;5069424;28;20004;-48
2023/07/11 01:41:51;;;;;;;;;;;17.10;99.90;;;;;;5068777;28;20369;-47
2023/07/11 01:44:16;;;;;;;;;;;17.10;99.90;;;;;;5069224;28;19916;-49
2023/07/11 01:46:42;;;;;;;;;;;17.10;99.90;;;;;;5068786;28;19931;-49
2023/07/11 01:49:07;;;;;;;;;;;17.10;99.90;;;;;;5068864;28;19962;-48
2023/07/11 01:51:33;;;;;;;;;;;17.10;99.90;;;;;;5068979;28;19920;-47
2023/07/11 01:53:58;;;;;;;;;;;17.10;99.90;;;;;;5069041;28;19924;-49
2023/07/11 01:56:24;;;;;;;;;;;17.10;99.90;;;;;;5067001;28;19916;-48
2023/07/11 01:58:49;;;;;;;;;;;17.10;99.90;;;;;;5069816;28;20015;-48
2023/07/11 02:01:15;;;;;;;;;;;17.10;99.90;;;;;;5069410;28;19916;-48
2023/07/11 02:03:40;;;;;;;;;;;17.10;99.90;;;;;;5069350;28;20301;-48
2023/07/11 02:06:06;;;;;;;;;;;17.10;99.90;;;;;;5068710;28;19967;-48
2023/07/11 02:08:31;;;;;;;;;;;17.20;99.90;;;;;;5068464;28;20381;-50
2023/07/11 02:10:56;;;;;;;;;;;17.20;99.90;;;;;;5066182;28;20327;-48
2023/07/11 02:13:22;;;;;;;;;;;17.20;99.90;;;;;;5069242;28;20010;-49
2023/07/11 02:15:47;;;;;;;;;;;17.20;99.90;;;;;;5068515;28;19947;-51
2023/07/11 02:18:13;;;;;;;;;;;17.10;99.90;;;;;;5068941;28;19940;-48
2023/07/11 02:20:40;;;;;;;;;;;17.10;99.90;;;;;;5068913;28;19966;-49
2023/07/11 02:23:05;;;;;;;;;;;17.10;99.90;;;;;;5068513;28;19991;-47
2023/07/11 02:25:31;;;;;;;;;;;17.00;99.90;;;;;;5067847;28;20011;-50
2023/07/11 02:27:56;;;;;;;;;;;17.00;99.90;;;;;;5069789;28;19916;-47
2023/07/11 02:30:22;;;;;;;;;;;17.00;99.90;;;;;;5073309;28;19917;-48
2023/07/11 02:32:47;;;;;;;;;;;17.00;99.90;;;;;;5073028;28;19920;-49
2023/07/11 02:35:13;;;;;;;;;;;17.00;99.90;;;;;;5072631;28;19947;-51
2023/07/11 02:37:38;;;;;;;;;;;17.00;99.90;;;;;;5072294;28;20011;-52
2023/07/11 02:40:04;;;;;;;;;;;17.00;99.90;;;;;;5073028;28;19970;-50
2023/07/11 02:42:29;;;;;;;;;;;17.00;99.90;;;;;;5073031;28;19916;-50
2023/07/11 02:44:55;;;;;;;;;;;17.10;99.90;;;;;;5072681;28;19917;-51
2023/07/11 02:47:20;;;;;;;;;;;17.10;99.90;;;;;;5072819;28;20349;-52
2023/07/11 02:49:46;;;;;;;;;;;17.10;99.90;;;;;;5072807;28;19953;-53
2023/07/11 02:52:11;;;;;;;;;;;17.10;99.90;;;;;;5071871;28;19920;-50
2023/07/11 02:54:37;;;;;;;;;;;17.10;99.90;;;;;;5072884;28;19923;-53
2023/07/11 02:57:03;;;;;;;;;;;17.10;99.90;;;;;;5072435;28;19958;-50
2023/07/11 02:59:29;;;;;;;;;;;17.10;99.90;;;;;;5072831;28;19963;-53
2023/07/11 03:01:56;;;;;;;;;;;17.10;99.90;;;;;;5072622;28;20397;-51
2023/07/11 03:04:21;;;;;;;;;;;17.10;99.90;;;;;;5072181;28;20420;-50
2023/07/11 03:06:47;;;;;;;;;;;17.10;99.90;;;;;;5071904;28;20081;-48
2023/07/11 03:09:12;;;;;;;;;;;17.10;99.90;;;;;;5072469;28;19924;-50
2023/07/11 03:11:38;;;;;;;;;;;17.10;99.90;;;;;;5071563;28;19921;-49
2023/07/11 03:14:03;;;;;;;;;;;17.10;99.90;;;;;;5071855;28;19916;-48
2023/07/11 03:16:28;;;;;;;;;;;17.10;99.90;;;;;;5071689;28;19932;-52
2023/07/11 03:18:54;;;;;;;;;;;17.10;99.90;;;;;;5072296;28;19999;-50
2023/07/11 03:21:19;;;;;;;;;;;17.10;99.90;;;;;;5071501;28;19916;-48
2023/07/11 03:23:45;;;;;;;;;;;17.10;99.90;;;;;;5071788;28;19916;-48
2023/07/11 03:26:10;;;;;;;;;;;17.10;99.90;;;;;;5071254;28;19916;-52
2023/07/11 03:28:36;;;;;;;;;;;17.10;99.90;;;;;;5071683;28;19979;-52
2023/07/11 03:31:01;;;;;;;;;;;17.10;99.90;;;;;;5071410;28;19920;-51
2023/07/11 03:33:27;;;;;;;;;;;17.00;99.90;;;;;;5071506;28;19924;-53
2023/07/11 03:35:52;;;;;;;;;;;17.00;99.90;;;;;;5070854;28;19917;-50
2023/07/11 03:38:19;;;;;;;;;;;17.00;99.90;;;;;;5071613;28;19939;-47
2023/07/11 03:40:44;;;;;;;;;;;17.00;99.90;;;;;;5071823;28;19924;-48
2023/07/11 03:43:10;;;;;;;;;;;17.00;99.90;;;;;;5071571;28;19939;-49
2023/07/11 03:45:35;;;;;;;;;;;16.90;99.90;;;;;;5071270;28;19979;-49
2023/07/11 03:48:01;;;;;;;;;;;16.90;99.90;;;;;;5087235;28;19939;-48
2023/07/11 03:50:26;;;;;;;;;;;16.90;99.90;;;;;;5071129;28;19922;-52
2023/07/11 03:52:52;;;;;;;;;;;16.90;99.90;;;;;;5071446;28;19920;-50
2023/07/11 03:55:17;;;;;;;;;;;16.90;99.90;;;;;;5071236;28;19917;-47
2023/07/11 03:57:43;;;;;;;;;;;16.80;99.90;;;;;;5071354;28;19924;-48
2023/07/11 04:00:09;;;;;;;;;;;16.90;99.90;;;;;;5071282;28;20389;-50
2023/07/11 04:02:35;;;;;;;;;;;16.90;99.90;;;;;;5069982;28;19997;-49
2023/07/11 04:05:00;;;;;;;;;;;16.90;99.90;;;;;;5070657;28;19969;-49
2023/07/11 04:07:26;;;;;;;;;;;16.90;99.90;;;;;;5071190;28;20503;-48
2023/07/11 04:09:51;;;;;;;;;;;16.90;99.90;;;;;;5072033;28;19917;-49
2023/07/11 04:12:17;;;;;;;;;;;17.00;99.90;;;;;;5068961;28;19924;-50
2023/07/11 04:14:42;;;;;;;;;;;17.00;99.90;;;;;;5070093;28;19963;-50
2023/07/11 04:17:08;;;;;;;;;;;17.00;99.90;;;;;;5070769;28;19923;-49
2023/07/11 04:19:33;;;;;;;;;;;17.00;99.90;;;;;;5070806;28;20003;-50
2023/07/11 04:21:59;;;;;;;;;;;17.10;99.90;;;;;;5071414;28;19978;-48
2023/07/11 04:24:24;;;;;;;;;;;17.10;99.90;;;;;;5070925;28;19924;-48
2023/07/11 04:26:49;;;;;;;;;;;17.20;99.90;;;;;;5069389;28;20369;-48
2023/07/11 04:29:15;;;;;;;;;;;17.20;99.90;;;;;;5070805;28;20003;-49
2023/07/11 04:31:40;;;;;;;;;;;17.20;99.90;;;;;;5070754;28;19921;-53
2023/07/11 04:34:06;;;;;;;;;;;17.30;99.90;;;;;;5070686;28;19920;-50
2023/07/11 04:36:31;;;;;;;;;;;17.30;99.90;;;;;;5052237;28;20067;-48
2023/07/11 04:38:57;;;;;;;;;;;17.30;99.90;;;;;;5070662;28;19917;-52
2023/07/11 04:41:22;;;;;;;;;;;17.40;99.90;;;;;;5070413;28;20412;-50
2023/07/11 04:43:48;;;;;;;;;;;17.40;99.90;;;;;;5070650;28;19926;-48
2023/07/11 04:46:13;;;;;;;;;;;17.40;99.90;;;;;;5070206;28;20427;-51
2023/07/11 04:48:39;;;;;;;;;;;17.40;99.90;;;;;;5070383;28;19923;-47
2023/07/11 04:51:07;;;;;;;;;;;17.50;99.90;;;;;;5069861;28;19921;-50
2023/07/11 04:53:33;;;;;;;;;;;17.50;99.90;;;;;;5070211;28;20078;-48
2023/07/11 04:55:59;;;;;;;;;;;17.60;99.90;;;;;;5067461;28;20022;-49
2023/07/11 04:58:25;;;;;;;;;;;17.70;99.90;;;;;;5070131;28;19916;-48
2023/07/11 05:00:51;;;;;;;;;;;17.70;99.90;;;;;;5070319;28;19939;-48
2023/07/11 05:03:17;;;;;;;;;;;17.70;99.90;;;;;;5068995;28;20266;-47
2023/07/11 05:05:42;;;;;;;;;;;17.80;99.90;;;;;;5069470;28;20247;-48
2023/07/11 05:08:08;;;;;;;;;;;17.80;99.90;;;;;;5069952;28;20009;-52
2023/07/11 05:10:33;;;;;;;;;;;17.90;99.90;;;;;;5068611;28;19923;-47
2023/07/11 05:12:59;;;;;;;;;;;17.90;99.90;;;;;;5069937;28;20065;-47
2023/07/11 05:15:24;;;;;;;;;;;17.90;99.90;;;;;;5069698;28;20386;-48
2023/07/11 05:17:50;;;;;;;;;;;18.10;99.90;;;;;;5069938;28;19924;-49
2023/07/11 05:20:15;;;;;;;;;;;18.20;99.90;;;;;;5069695;28;19924;-48
2023/07/11 05:22:41;;;;;;;;;;;18.30;99.90;;;;;;5068615;28;19959;-53
2023/07/11 05:25:07;;;;;;;;;;;18.40;99.90;;;;;;5069706;28;19916;-49
2023/07/11 05:27:32;;;;;;;;;;;18.60;99.90;;;;;;5069818;28;19923;-50
2023/07/11 05:29:58;;;;;;;;;;;18.70;99.90;;;;;;5068699;28;19923;-48
2023/07/11 05:32:23;;;;;;;;;;;18.70;99.90;;;;;;5069679;28;20450;-48
2023/07/11 05:34:49;;;;;;;;;;;18.80;99.90;;;;;;5068758;28;19958;-50
2023/07/11 05:37:14;;;;;;;;;;;18.90;99.90;;;;;;5069852;28;20320;-55
2023/07/11 05:39:39;;;;;;;;;;;19.00;99.90;;;;;;5069334;28;20018;-49
2023/07/11 05:42:05;;;;;;;;;;;19.00;99.90;;;;;;5069578;28;20390;-50
2023/07/11 05:44:31;;;;;;;;;;;19.00;99.90;;;;;;5068860;28;19970;-49
2023/07/11 05:46:56;;;;;;;;;;;19.00;99.90;;;;;;5068832;28;20385;-53
2023/07/11 05:49:22;;;;;;;;;;;19.00;99.90;;;;;;5067531;28;19931;-48
2023/07/11 05:51:47;;;;;;;;;;;19.10;99.90;;;;;;5068851;28;20343;-50
2023/07/11 05:54:13;;;;;;;;;;;19.20;99.90;;;;;;5068681;28;20024;-48
2023/07/11 05:56:39;;;;;;;;;;;19.40;99.90;;;;;;5069380;28;19921;-48
2023/07/11 05:59:05;;;;;;;;;;;19.50;99.90;;;;;;5069133;28;19917;-51
2023/07/11 06:01:31;;;;;;;;;;;19.70;99.90;;;;;;5067736;28;19969;-52
2023/07/11 06:04:04;;;;;;;;;;;19.80;99.90;;;;;;5067875;28;19920;-51
2023/07/11 06:06:29;;;;;;;;;;;19.90;99.90;;;;;;5068297;28;19967;-48
2023/07/11 06:08:55;;;;;;;;;;;20.00;99.90;;;;;;5062755;28;20353;-48
2023/07/11 06:11:20;;;;;;;;;;;20.10;99.90;;;;;;5067083;28;19916;-51
2023/07/11 06:13:46;;;;;;;;;;;20.20;99.90;;;;;;5078313;28;19999;-48
2023/07/11 06:16:15;;;;;;;;;;;20.30;99.90;;;;;;5066701;28;19923;-50
2023/07/11 06:18:41;;;;;;;;;;;20.40;99.90;;;;;;5062502;28;20018;-48
2023/07/11 06:21:07;;;;;;;;;;;20.60;99.90;;;;;;5069798;28;19982;-48
2023/07/11 06:23:33;;;;;;;;;;;20.60;99.90;;;;;;5065279;28;19923;-48
2023/07/11 06:25:58;;;;;;;;;;;20.70;99.90;;;;;;5064544;28;19920;-48
2023/07/11 06:28:24;;;;;;;;;;;20.90;99.90;;;;;;5066877;28;19968;-48
2023/07/11 06:30:50;;;;;;;;;;;20.90;99.90;;;;;;5064391;28;20297;-51
2023/07/11 06:33:17;;;;;;;;;;;21.00;99.90;;;;;;5068604;28;19959;-51
2023/07/11 06:35:47;;;;;;;;;;;21.00;99.90;;;;;;5067818;28;19916;-50
2023/07/11 06:38:12;;;;;;;;;;;21.10;99.90;;;;;;5069082;28;20003;-49
2023/07/11 06:40:38;;;;;;;;;;;21.20;99.90;;;;;;5068102;28;20011;-49
2023/07/11 06:43:03;;;;;;;;;;;21.20;99.90;;;;;;5068538;28;19924;-52
2023/07/11 06:45:29;;;;;;;;;;;21.30;99.90;;;;;;5067057;28;19982;-50
2023/07/11 06:47:54;;;;;;;;;;;21.30;99.90;;;;;;5063150;28;19916;-51
2023/07/11 06:50:20;;;;;;;;;;;21.40;99.90;;;;;;5058294;28;19928;-48
2023/07/11 06:52:45;;;;;;;;;;;21.50;99.90;;;;;;5065534;28;19968;-50
2023/07/11 06:55:12;;;;;;;;;;;21.70;99.90;;;;;;5061337;28;19939;-50
2023/07/11 06:57:38;;;;;;;;;;;21.80;99.90;;;;;;5061638;28;19927;-54
2023/07/11 07:00:05;;;;;;;;;;;21.90;99.90;;;;;;5063578;28;19916;-51
2023/07/11 07:02:30;;;;;;;;;;;21.90;99.90;;;;;;5062392;28;19920;-49
2023/07/11 07:04:56;;;;;;;;;;;21.90;99.90;;;;;;5064341;28;19924;-50
2023/07/11 07:07:21;;;;;;;;;;;22.00;99.90;;;;;;5062114;28;20357;-51
2023/07/11 07:09:49;;;;;;;;;;;22.10;99.90;;;;;;5060711;28;19927;-55
2023/07/11 07:12:15;;;;;;;;;;;22.30;99.90;;;;;;5062556;28;19920;-49
2023/07/11 07:14:41;;;;;;;;;;;22.50;99.90;;;;;;5060878;28;19928;-51
2023/07/11 07:17:06;;;;;;;;;;;22.60;99.90;;;;;;5060366;28;19924;-49
2023/07/11 07:19:32;;;;;;;;;;;22.70;99.90;;;;;;5067973;28;20412;-51
2023/07/11 07:21:57;;;;;;;;;;;22.80;99.90;;;;;;5067939;28;19922;-52
2023/07/11 07:24:22;;;;;;;;;;;23.00;99.90;;;;;;5068628;28;19966;-49
2023/07/11 07:26:48;;;;;;;;;;;23.10;99.90;;;;;;5070166;28;20319;-50
2023/07/11 07:29:13;;;;;;;;;;;23.20;99.90;;;;;;5069332;28;19916;-51
2023/07/11 07:31:39;;;;;;;;;;;23.20;99.90;;;;;;5068428;28;19920;-50
2023/07/11 07:34:05;;;;;;;;;;;23.20;99.60;;;;;;5065757;28;20061;-53
2023/07/11 07:36:31;;;;;;;;;;;23.20;99.90;;;;;;5070809;28;19923;-50
2023/07/11 07:38:56;;;;;;;;;;;23.40;99.90;;;;;;5071440;28;19920;-51
2023/07/11 07:41:24;;;;;;;;;;;23.50;99.60;;;;;;5067347;28;19943;-49
2023/07/11 07:43:50;;;;;;;;;;;23.60;99.80;;;;;;5065113;28;20080;-51
2023/07/11 07:46:16;;;;;;;;;;;23.70;99.90;;;;;;5065173;28;19916;-55
2023/07/11 07:48:43;;;;;;;;;;;23.70;99.30;;;;;;5085315;28;20547;-49
2023/07/11 07:51:10;;;;;;;;;;;23.70;99.30;;;;;;5080615;28;19924;-49
2023/07/11 07:53:35;;;;;;;;;;;23.80;99.40;;;;;;5067900;28;20124;-49
2023/07/11 07:56:05;;;;;;;;;;;24.00;99.80;;;;;;5071096;28;20377;-49
2023/07/11 07:58:31;;;;;;;;;;;24.10;98.60;;;;;;5068640;28;19916;-52
2023/07/11 08:00:56;;;;;;;;;;;24.30;99.10;;;;;;5063946;28;19931;-51
2023/07/11 08:03:22;;;;;;;;;;;24.30;97.40;;;;;;5067937;28;19959;-52
2023/07/11 08:05:47;;;;;;;;;;;24.40;97.70;;;;;;5066203;28;20877;-49
2023/07/11 08:08:13;;;;;;;;;;;24.50;97.70;;;;;;5068642;28;19916;-54
2023/07/11 08:10:38;;;;;;;;;;;24.60;97.40;;;;;;5066212;28;19924;-51
2023/07/11 08:13:04;;;;;;;;;;;24.60;97.30;;;;;;5065777;28;20010;-49
2023/07/11 08:15:29;;;;;;;;;;;24.70;97.20;;;;;;5066894;28;19923;-52
2023/07/11 08:17:55;;;;;;;;;;;24.80;97.90;;;;;;5070669;28;19927;-52
2023/07/11 08:20:20;;;;;;;;;;;24.80;97.10;;;;;;5065989;28;19916;-49
2023/07/11 08:22:46;;;;;;;;;;;24.90;96.60;;;;;;5066025;28;19920;-53
2023/07/11 08:25:14;;;;;;;;;;;25.10;96.40;;;;;;5072098;28;19964;-52
2023/07/11 08:27:40;;;;;;;;;;;25.10;95.80;;;;;;5080662;28;19931;-49
2023/07/11 08:30:06;;;;;;;;;;;25.20;96.10;;;;;;5075374;28;19916;-51
2023/07/11 08:32:31;;;;;;;;;;;25.20;95.70;;;;;;5078651;28;19943;-52
2023/07/11 08:34:56;;;;;;;;;;;25.30;96.50;;;;;;5073751;28;19921;-50
2023/07/11 08:37:22;;;;;;;;;;;25.50;96.40;;;;;;5072657;28;19924;-49
2023/07/11 08:39:48;;;;;;;;;;;25.50;96.10;;;;;;5072747;28;20381;-50
2023/07/11 08:42:28;;;;;;;;;;;25.70;96.80;;;;;;5075791;28;20592;-54
2023/07/11 08:45:03;;;;;;;;;;;25.70;96.30;;;;;;5074605;28;19930;-50
2023/07/11 08:47:32;;;;;;;;;;;25.80;94.80;;;;;;5076906;28;20335;-53
2023/07/11 08:49:59;;;;;;;;;;;25.80;95.20;;;;;;5076355;28;20003;-51
2023/07/11 08:52:26;;;;;;;;;;;25.80;95.20;;;;;;5066255;28;19920;-51
2023/07/11 08:54:54;;;;;;;;;;;25.90;95.20;;;;;;5065702;28;19931;-50
2023/07/11 08:57:23;;;;;;;;;;;26.00;94.90;;;;;;5075470;28;19931;-55
2023/07/11 08:59:57;;;;;;;;;;;26.20;95.00;;;;;;5075544;28;19920;-50
2023/07/11 09:02:41;;;;;;;;;;;26.20;94.60;;;;;;5077926;28;20420;-50
2023/07/11 09:05:31;;;;;;;;;;;26.20;94.60;;;;;;5076483;28;19916;-49
2023/07/11 09:07:57;;;;;;;;;;;26.30;94.80;;;;;;5071941;28;19963;-52
2023/07/11 09:10:29;;;;;;;;;;;26.40;94.60;;;;;;5078545;28;19916;-52
2023/07/11 09:13:14;;;;;;;;;;;26.40;94.10;;;;;;5075318;28;19934;-53
2023/07/11 09:15:39;;;;;;;;;;;26.50;94.80;;;;;;5072528;28;19920;-52
2023/07/11 09:18:43;;;;;;;;;;;26.50;94.10;;;;;;5074784;28;19922;-52
2023/07/11 09:21:09;;;;;;;;;;;26.60;94.80;;;;;;4996230;28;19929;-54
2023/07/11 09:23:46;;;;;;;;;;;26.60;93.40;;;;;;4993104;28;19918;-54
2023/07/11 09:26:16;;;;;;;;;;;26.60;93.40;;;;;;5027041;28;20053;-53
2023/07/11 09:28:42;;;;;;;;;;;26.70;93.00;;;;;;5063887;28;20026;-55
2023/07/11 09:31:17;;;;;;;;;;;26.70;92.30;;;;;;5070875;28;20030;-53
2023/07/11 09:33:46;;;;;;;;;;;26.70;93.40;;;;;;5071656;28;19924;-52
2023/07/11 09:36:20;;;;;;;;;;;26.80;92.70;;;;;;5072298;28;19916;-50
2023/07/11 09:38:49;;;;;;;;;;;26.80;93.30;;;;;;5078391;28;19923;-53
2023/07/11 09:41:26;;;;;;;;;;;27.00;92.70;;;;;;5089459;28;19920;-54
2023/07/11 09:43:52;;;;;;;;;;;27.10;93.10;;;;;;5072145;28;20298;-50
2023/07/11 09:46:22;;;;;;;;;;;27.00;91.10;;;;;;5067831;28;19938;-50
2023/07/11 09:48:50;;;;;;;;;;;27.00;91.30;;;;;;5064424;28;19939;-55
2023/07/11 09:51:30;;;;;;;;;;;27.00;91.80;;;;;;5070628;28;20333;-51
2023/07/11 09:53:55;;;;;;;;;;;27.10;91.40;;;;;;5066893;28;19928;-54
2023/07/11 09:56:22;;;;;;;;;;;27.20;91.10;;;;;;5071214;28;20365;-52
2023/07/11 09:58:52;;;;;;;;;;;27.30;90.80;;;;;;5067783;28;20019;-54
2023/07/11 10:01:21;;;;;;;;;;;27.30;90.30;;;;;;5067578;28;19916;-53
2023/07/11 10:03:47;;;;;;;;;;;27.30;90.90;;;;;;5065597;28;19924;-53
2023/07/11 10:06:30;;;;;;;;;;;27.40;91.70;;;;;;5067021;28;20512;-54
2023/07/11 10:08:56;;;;;;;;;;;27.50;90.00;;;;;;5069294;28;20007;-50
2023/07/11 10:11:21;;;;;;;;;;;27.50;89.40;;;;;;5066816;28;20020;-52
2023/07/11 10:13:47;;;;;;;;;;;27.50;90.00;;;;;;5068441;28;19920;-51
2023/07/11 10:16:20;;;;;;;;;;;27.60;90.60;;;;;;5065480;28;20413;-52
2023/07/11 10:18:46;;;;;;;;;;;27.70;89.60;;;;;;5065398;28;19920;-51
2023/07/11 10:21:13;;;;;;;;;;;27.70;90.00;;;;;;5070715;28;20383;-50
2023/07/11 10:23:42;;;;;;;;;;;27.70;88.60;;;;;;5066877;28;20020;-54
2023/07/11 10:26:10;;;;;;;;;;;27.70;87.10;;;;;;5068592;28;19981;-53
2023/07/11 10:28:39;;;;;;;;;;;27.70;86.40;;;;;;5066368;28;19916;-52
2023/07/11 10:31:08;;;;;;;;;;;27.70;85.30;;;;;;5067615;28;20221;-52
2023/07/11 10:33:39;;;;;;;;;;;27.70;86.10;;;;;;5068597;28;20297;-54
2023/07/11 10:36:30;;;;;;;;;;;27.70;86.00;;;;;;5066637;28;19919;-50
2023/07/11 10:38:58;;;;;;;;;;;27.70;84.30;;;;;;5063690;28;19927;-50
2023/07/11 10:41:59;;;;;;;;;;;27.70;85.00;;;;;;5065263;28;19923;-51
2023/07/11 10:44:33;;;;;;;;;;;27.80;84.40;;;;;;4988892;28;19918;-51
2023/07/11 10:46:59;;;;;;;;;;;27.90;84.40;;;;;;5054906;28;19928;-54
2023/07/11 10:49:26;;;;;;;;;;;28.00;84.90;;;;;;5068931;28;19916;-53
2023/07/11 10:51:54;;;;;;;;;;;28.10;84.80;;;;;;5071708;28;20454;-54
2023/07/11 10:54:22;;;;;;;;;;;28.20;85.70;;;;;;5072811;28;19998;-50
2023/07/11 10:56:49;;;;;;;;;;;28.20;82.90;;;;;;5070701;28;20006;-54
2023/07/11 10:59:16;;;;;;;;;;;28.30;84.20;;;;;;5067000;28;20362;-54
2023/07/11 11:01:48;;;;;;;;;;;28.30;84.20;;;;;;5069622;28;19985;-53
2023/07/11 11:04:28;;;;;;;;;;;28.30;82.50;;;;;;5072238;28;19999;-54
2023/07/11 11:06:56;;;;;;;;;;;28.30;83.90;;;;;;5071936;28;19996;-55
2023/07/11 11:09:35;;;;;;;;;;;28.20;84.00;;;;;;5069799;28;19916;-51
2023/07/11 11:12:16;;;;;;;;;;;28.10;83.50;;;;;;5071483;28;20374;-53
2023/07/11 11:14:54;;;;;;;;;;;28.20;84.00;;;;;;5068386;28;20042;-54
2023/07/11 11:17:26;;;;;;;;;;;28.20;83.80;;;;;;5069527;28;20401;-51
2023/07/11 11:20:00;;;;;;;;;;;28.30;83.00;;;;;;5070011;28;20405;-53
2023/07/11 11:22:37;;;;;;;;;;;28.20;84.30;;;;;;5070396;28;19916;-51
2023/07/11 11:25:09;;;;;;;;;;;28.30;84.30;;;;;;5070024;28;20210;-52
2023/07/11 11:27:45;;;;;;;;;;;28.30;86.20;;;;;;5063216;28;19920;-54
2023/07/11 11:30:29;;;;;;;;;;;28.40;85.20;;;;;;5067997;28;19995;-53
2023/07/11 11:33:00;;;;;;;;;;;28.50;82.90;;;;;;5066223;28;19963;-55
2023/07/11 11:35:26;;;;;;;;;;;28.60;84.90;;;;;;5069396;28;19917;-50
2023/07/11 11:38:30;;;;;;;;;;;28.80;83.80;;;;;;5068581;28;19920;-50
2023/07/11 11:40:58;;;;;;;;;;;28.90;84.70;;;;;;4992485;28;19932;-54
2023/07/11 11:43:27;;;;;;;;;;;28.80;81.90;;;;;;4970389;28;19922;-51
2023/07/11 11:45:53;;;;;;;;;;;28.80;81.20;;;;;;4988830;28;20056;-52
2023/07/11 11:48:25;;;;;;;;;;;28.70;80.90;;;;;;4988100;28;19933;-54
2023/07/11 11:50:51;;;;;;;;;;;28.70;83.90;;;;;;4988378;28;19976;-54
2023/07/11 11:53:18;;;;;;;;;;;28.60;82.10;;;;;;4988722;28;20012;-54
2023/07/11 11:55:50;;;;;;;;;;;28.70;82.10;;;;;;4988540;28;19918;-53
2023/07/11 11:58:16;;;;;;;;;;;28.70;83.90;;;;;;4985438;28;20355;-51
2023/07/11 12:00:46;;;;;;;;;;;28.90;83.30;;;;;;4971070;28;20040;-54
2023/07/11 12:03:19;;;;;;;;;;;29.00;80.70;;;;;;4990438;28;19925;-52
2023/07/11 12:05:49;;;;;;;;;;;29.00;82.60;;;;;;4987676;28;19979;-54
2023/07/11 12:08:24;;;;;;;;;;;28.90;81.20;;;;;;4987483;28;19932;-51
2023/07/11 12:11:08;;;;;;;;;;;28.80;82.20;;;;;;5000838;28;19967;-52
2023/07/11 12:13:37;;;;;;;;;;;28.80;84.90;;;;;;5068444;28;20387;-54
2023/07/11 12:16:06;;;;;;;;;;;28.80;82.20;;;;;;5073677;28;20434;-53
2023/07/11 12:18:45;;;;;;;;;;;28.80;82.40;;;;;;5069380;28;19959;-51
2023/07/11 12:21:14;;;;;;;;;;;28.90;80.90;;;;;;5068310;28;20509;-52
2023/07/11 12:23:40;;;;;;;;;;;28.90;82.20;;;;;;5067561;28;19921;-55
2023/07/11 12:26:16;;;;;;;;;;;28.90;80.40;;;;;;5070315;28;19916;-52
2023/07/11 12:28:44;;;;;;;;;;;29.00;80.20;;;;;;5069502;28;19962;-55
2023/07/11 12:31:21;;;;;;;;;;;29.00;78.30;;;;;;5093687;28;19920;-54
2023/07/11 12:34:12;;;;;;;;;;;28.80;77.10;;;;;;5069835;28;19920;-52
2023/07/11 12:36:54;;;;;;;;;;;28.60;76.50;;;;;;5065871;28;20038;-53
2023/07/11 12:39:23;;;;;;;;;;;28.50;76.00;;;;;;5062137;28;19929;-54
2023/07/11 12:42:00;;;;;;;;;;;28.50;76.20;;;;;;5071060;28;20285;-51
2023/07/11 12:44:27;;;;;;;;;;;28.50;76.50;;;;;;5075148;28;20381;-55
2023/07/11 12:46:53;;;;;;;;;;;28.60;77.40;;;;;;5069866;28;19916;-54
2023/07/11 12:49:24;;;;;;;;;;;28.70;78.60;;;;;;5090784;28;20401;-53
2023/07/11 12:51:49;;;;;;;;;;;28.80;77.00;;;;;;5077831;28;19978;-55
2023/07/11 12:54:17;;;;;;;;;;;28.80;77.40;;;;;;5078444;28;19960;-55
2023/07/11 12:56:46;;;;;;;;;;;28.80;77.20;;;;;;5071022;28;19923;-52
2023/07/11 12:59:18;;;;;;;;;;;28.90;77.30;;;;;;5066764;28;20474;-54
2023/07/11 13:01:44;;;;;;;;;;;29.00;77.60;;;;;;5066529;28;19916;-54
2023/07/11 13:04:13;;;;;;;;;;;29.10;77.70;;;;;;5070403;28;19970;-51
2023/07/11 13:06:40;;;;;;;;;;;29.10;74.90;;;;;;5071929;28;19920;-52
2023/07/11 13:09:09;;;;;;;;;;;29.10;75.50;;;;;;5067040;28;19920;-54
2023/07/11 13:11:35;;;;;;;;;;;29.00;76.10;;;;;;5068158;28;19920;-53
2023/07/11 13:14:01;;;;;;;;;;;28.90;74.60;;;;;;5068111;28;19916;-51
2023/07/11 13:16:45;;;;;;;;;;;29.10;76.40;;;;;;5065789;28;20400;-54
2023/07/11 13:19:15;;;;;;;;;;;29.10;74.80;;;;;;5064413;28;19916;-55
2023/07/11 13:21:41;;;;;;;;;;;29.30;74.50;;;;;;5059495;28;19920;-52
2023/07/11 13:24:10;;;;;;;;;;;29.30;74.90;;;;;;5069126;28;19924;-53
2023/07/11 13:26:36;;;;;;;;;;;29.30;76.10;;;;;;5064062;28;20397;-51
2023/07/11 13:29:18;;;;;;;;;;;29.50;74.60;;;;;;5067420;28;20107;-52
2023/07/11 13:31:45;;;;;;;;;;;29.60;75.60;;;;;;5067155;28;19916;-52
2023/07/11 13:34:15;;;;;;;;;;;29.60;75.20;;;;;;5066667;28;19924;-50
2023/07/11 13:36:42;;;;;;;;;;;29.60;76.40;;;;;;5067417;28;19921;-54
2023/07/11 13:39:11;;;;;;;;;;;29.50;74.20;;;;;;5067078;28;19978;-55
2023/07/11 13:41:39;;;;;;;;;;;29.30;73.50;;;;;;5066751;28;19917;-56
2023/07/11 13:44:28;;;;;;;;;;;29.20;74.60;;;;;;5068108;28;20004;-54
2023/07/11 13:46:54;;;;;;;;;;;29.20;76.00;;;;;;5062670;28;19916;-52
2023/07/11 13:49:21;;;;;;;;;;;29.10;75.40;;;;;;5071912;28;19916;-55
2023/07/11 13:51:47;;;;;;;;;;;29.10;76.00;;;;;;5065600;28;19924;-52
2023/07/11 13:54:20;;;;;;;;;;;29.00;74.90;;;;;;5069428;28;19938;-54
2023/07/11 13:56:46;;;;;;;;;;;29.00;75.40;;;;;;5065291;28;19916;-51
2023/07/11 13:59:12;;;;;;;;;;;29.00;76.20;;;;;;5067412;28;19924;-55
2023/07/11 14:01:37;;;;;;;;;;;29.00;75.40;;;;;;5063172;28;19989;-51
2023/07/11 14:04:13;;;;;;;;;;;29.00;76.20;;;;;;5066217;28;19924;-53
2023/07/11 14:06:39;;;;;;;;;;;29.00;76.00;;;;;;5065981;28;19975;-54
2023/07/11 14:09:05;;;;;;;;;;;28.90;76.10;;;;;;5066226;28;19967;-54
2023/07/11 14:11:30;;;;;;;;;;;29.00;75.80;;;;;;5066985;28;20288;-51
2023/07/11 14:13:57;;;;;;;;;;;28.90;74.90;;;;;;5066405;28;20519;-55
2023/07/11 14:16:22;;;;;;;;;;;28.80;75.10;;;;;;5069479;28;19924;-52
2023/07/11 14:18:49;;;;;;;;;;;28.70;74.80;;;;;;5066542;28;19939;-52
2023/07/11 14:21:15;;;;;;;;;;;28.60;75.90;;;;;;5068158;28;20015;-50